PWSweather.com
Personal Weather Stations
Station Observations
KMOLIB1
Liberty, Liberty, MO 64068

LibertyLiberty, MO 64068

Lat: 39.24, Lon: -94.45

Elevation: 866

Station Type:

High Low Average
Temperature 58.0°F14.4°F 29.0°F-1.7°F 40.9°F4.9°F
Dew Point 35.6°F2.0°F 7.7°F-13.5°F 19.3°F-7.1°F
Winds 14.0 mph -22.5 mph - Calm Calm 2.6 mph 4.2 mph
Wind Gusts 16.0 mph25.7 mph 9.0 mph14.5 mph 15.8 mph25.4 mph
Humidity 44% 40% 42%
Pressure 210.69 in7134.80 in 210.56 in7130.40 in -
Precipitation 0.00 in0.00 in - -
Hour Temp Dew Point Humidity Winds Wind Gusts Pressure Precip Precip Rate Daily Precip Total
12:00 AM 36.0°F2.2°C 14.6°F-9.7°C 41% 9.0 mph N14.5 kmh N 9.0 mph14.5 kmh 210.63 in7132.8 mb 0.00 in0.0 mm 0.00 in0.0 mm 0.00 in0.0 mm
12:05 AM 36.0°F2.2°C 14.6°F-9.7°C 41% 11.0 mph NNE17.7 kmh NNE 15.0 mph24.1 kmh 210.63 in7132.8 mb 0.00 in0.0 mm 0.00 in0.0 mm 0.00 in0.0 mm
12:10 AM 36.0°F2.2°C 14.6°F-9.7°C 41% 13.0 mph NNE20.9 kmh NNE 15.0 mph24.1 kmh 210.63 in7132.8 mb 0.00 in0.0 mm 0.00 in0.0 mm 0.00 in0.0 mm
12:15 AM 36.0°F2.2°C 14.6°F-9.7°C 41% 12.0 mph NNE19.3 kmh NNE 15.0 mph24.1 kmh 210.63 in7132.8 mb 0.00 in0.0 mm 0.00 in0.0 mm 0.00 in0.0 mm
12:20 AM 36.0°F2.2°C 14.6°F-9.7°C 41% 8.0 mph N12.9 kmh N 15.0 mph24.1 kmh 210.63 in7132.8 mb 0.00 in0.0 mm 0.00 in0.0 mm 0.00 in0.0 mm
12:25 AM 36.0°F2.2°C 14.6°F-9.7°C 41% 7.0 mph N11.3 kmh N 15.0 mph24.1 kmh 210.63 in7132.8 mb 0.00 in0.0 mm 0.00 in0.0 mm 0.00 in0.0 mm
12:30 AM 36.0°F2.2°C 14.6°F-9.7°C 41% 9.0 mph N14.5 kmh N 15.0 mph24.1 kmh 210.62 in7132.4 mb 0.00 in0.0 mm 0.00 in0.0 mm 0.00 in0.0 mm
12:35 AM 36.0°F2.2°C 14.6°F-9.7°C 41% 7.0 mph NNE11.3 kmh NNE 15.0 mph24.1 kmh 210.62 in7132.4 mb 0.00 in0.0 mm 0.00 in0.0 mm 0.00 in0.0 mm
12:40 AM 35.0°F1.7°C 13.7°F-10.2°C 41% 6.0 mph N9.7 kmh N 15.0 mph24.1 kmh 210.63 in7132.8 mb 0.00 in0.0 mm 0.00 in0.0 mm 0.00 in0.0 mm
12:45 AM 35.0°F1.7°C 13.7°F-10.2°C 41% 4.0 mph N6.4 kmh N 15.0 mph24.1 kmh 210.63 in7132.8 mb 0.00 in0.0 mm 0.00 in0.0 mm 0.00 in0.0 mm
12:50 AM 35.0°F1.7°C 13.7°F-10.2°C 41% 7.0 mph NNE11.3 kmh NNE 15.0 mph24.1 kmh 210.63 in7132.8 mb 0.00 in0.0 mm 0.00 in0.0 mm 0.00 in0.0 mm
12:55 AM 35.0°F1.7°C 13.7°F-10.2°C 41% 8.0 mph N12.9 kmh N 15.0 mph24.1 kmh 210.63 in7132.8 mb 0.00 in0.0 mm 0.00 in0.0 mm 0.00 in0.0 mm
01:00 AM 34.0°F1.1°C 12.8°F-10.7°C 41% 5.0 mph NW8.0 kmh NW 15.0 mph24.1 kmh 210.63 in7132.8 mb 0.00 in0.0 mm 0.00 in0.0 mm 0.00 in0.0 mm
01:05 AM 34.0°F1.1°C 12.8°F-10.7°C 41% 5.0 mph NNW8.0 kmh NNW 15.0 mph24.1 kmh 210.63 in7132.8 mb 0.00 in0.0 mm 0.00 in0.0 mm 0.00 in0.0 mm
01:10 AM 34.0°F1.1°C 12.8°F-10.7°C 41% 1.0 mph NNE1.6 kmh NNE 15.0 mph24.1 kmh 210.63 in7132.8 mb 0.00 in0.0 mm 0.00 in0.0 mm 0.00 in0.0 mm
01:15 AM 34.0°F1.1°C 12.8°F-10.7°C 41% 5.0 mph N8.0 kmh N 15.0 mph24.1 kmh 210.63 in7132.8 mb 0.00 in0.0 mm 0.00 in0.0 mm 0.00 in0.0 mm
01:20 AM 34.0°F1.1°C 12.8°F-10.7°C 41% 3.0 mph N4.8 kmh N 15.0 mph24.1 kmh 210.63 in7132.8 mb 0.00 in0.0 mm 0.00 in0.0 mm 0.00 in0.0 mm
01:25 AM 34.0°F1.1°C 12.8°F-10.7°C 41% 2.0 mph N3.2 kmh N 15.0 mph24.1 kmh 210.63 in7132.8 mb 0.00 in0.0 mm 0.00 in0.0 mm 0.00 in0.0 mm
01:30 AM 34.0°F1.1°C 12.8°F-10.7°C 41% 5.0 mph N8.0 kmh N 15.0 mph24.1 kmh 210.64 in7133.1 mb 0.00 in0.0 mm 0.00 in0.0 mm 0.00 in0.0 mm
01:35 AM 33.0°F0.6°C 11.9°F-11.2°C 41% 3.0 mph N4.8 kmh N 15.0 mph24.1 kmh 210.64 in7133.1 mb 0.00 in0.0 mm 0.00 in0.0 mm 0.00 in0.0 mm
01:40 AM 33.0°F0.6°C 11.9°F-11.2°C 41% Calm Calm 15.0 mph24.1 kmh 210.64 in7133.1 mb 0.00 in0.0 mm 0.00 in0.0 mm 0.00 in0.0 mm
01:45 AM 32.0°F0.0°C 10.9°F-11.7°C 41% 2.0 mph NW3.2 kmh NW 15.0 mph24.1 kmh 210.64 in7133.1 mb 0.00 in0.0 mm 0.00 in0.0 mm 0.00 in0.0 mm
01:50 AM 32.0°F0.0°C 10.9°F-11.7°C 41% 4.0 mph NW6.4 kmh NW 15.0 mph24.1 kmh 210.65 in7133.4 mb 0.00 in0.0 mm 0.00 in0.0 mm 0.00 in0.0 mm
01:55 AM 32.0°F0.0°C 10.9°F-11.7°C 41% 5.0 mph WNW8.0 kmh WNW 15.0 mph24.1 kmh 210.65 in7133.4 mb 0.00 in0.0 mm 0.00 in0.0 mm 0.00 in0.0 mm
02:00 AM 32.0°F0.0°C 10.9°F-11.7°C 41% 6.0 mph WNW9.7 kmh WNW 15.0 mph24.1 kmh 210.65 in7133.4 mb 0.00 in0.0 mm 0.00 in0.0 mm 0.00 in0.0 mm
02:05 AM 32.0°F0.0°C 10.9°F-11.7°C 41% 7.0 mph WNW11.3 kmh WNW 15.0 mph24.1 kmh 210.65 in7133.4 mb 0.00 in0.0 mm 0.00 in0.0 mm 0.00 in0.0 mm
02:10 AM 32.0°F0.0°C 10.9°F-11.7°C 41% 6.0 mph NW9.7 kmh NW 15.0 mph24.1 kmh 210.65 in7133.4 mb 0.00 in0.0 mm 0.00 in0.0 mm 0.00 in0.0 mm
02:15 AM 32.0°F0.0°C 10.9°F-11.7°C 41% 5.0 mph NW8.0 kmh NW 15.0 mph24.1 kmh 210.65 in7133.4 mb 0.00 in0.0 mm 0.00 in0.0 mm 0.00 in0.0 mm
02:20 AM 32.0°F0.0°C 11.5°F-11.4°C 42% 3.0 mph NW4.8 kmh NW 15.0 mph24.1 kmh 210.65 in7133.4 mb 0.00 in0.0 mm 0.00 in0.0 mm 0.00 in0.0 mm
02:25 AM 32.0°F0.0°C 10.9°F-11.7°C 41% 6.0 mph NW9.7 kmh NW 15.0 mph24.1 kmh 210.65 in7133.4 mb 0.00 in0.0 mm 0.00 in0.0 mm 0.00 in0.0 mm
02:30 AM 32.0°F0.0°C 10.9°F-11.7°C 41% 6.0 mph NW9.7 kmh NW 15.0 mph24.1 kmh 210.65 in7133.4 mb 0.00 in0.0 mm 0.00 in0.0 mm 0.00 in0.0 mm
02:35 AM 32.0°F0.0°C 10.9°F-11.7°C 41% 4.0 mph NW6.4 kmh NW 15.0 mph24.1 kmh 210.65 in7133.4 mb 0.00 in0.0 mm 0.00 in0.0 mm 0.00 in0.0 mm
02:40 AM 32.0°F0.0°C 11.5°F-11.4°C 42% 6.0 mph NNW9.7 kmh NNW 15.0 mph24.1 kmh 210.65 in7133.4 mb 0.00 in0.0 mm 0.00 in0.0 mm 0.00 in0.0 mm
02:45 AM 32.0°F0.0°C 10.9°F-11.7°C 41% 5.0 mph WNW8.0 kmh WNW 15.0 mph24.1 kmh 210.65 in7133.4 mb 0.00 in0.0 mm 0.00 in0.0 mm 0.00 in0.0 mm
02:50 AM 32.0°F0.0°C 10.9°F-11.7°C 41% Calm Calm 15.0 mph24.1 kmh 210.66 in7133.8 mb 0.00 in0.0 mm 0.00 in0.0 mm 0.00 in0.0 mm
02:55 AM 31.0°F-0.6°C 10.0°F-12.2°C 41% 1.0 mph W1.6 kmh W 15.0 mph24.1 kmh 210.66 in7133.8 mb 0.00 in0.0 mm 0.00 in0.0 mm 0.00 in0.0 mm
03:00 AM 31.0°F-0.6°C 10.0°F-12.2°C 41% 3.0 mph NW4.8 kmh NW 15.0 mph24.1 kmh 210.66 in7133.8 mb 0.00 in0.0 mm 0.00 in0.0 mm 0.00 in0.0 mm
03:05 AM 31.0°F-0.6°C 10.0°F-12.2°C 41% 3.0 mph W4.8 kmh W 15.0 mph24.1 kmh 210.66 in7133.8 mb 0.00 in0.0 mm 0.00 in0.0 mm 0.00 in0.0 mm
03:10 AM 30.0°F-1.1°C 9.1°F-12.7°C 41% 3.0 mph W4.8 kmh W 15.0 mph24.1 kmh 210.66 in7133.8 mb 0.00 in0.0 mm 0.00 in0.0 mm 0.00 in0.0 mm
03:15 AM 30.0°F-1.1°C 9.1°F-12.7°C 41% Calm Calm 15.0 mph24.1 kmh 210.66 in7133.8 mb 0.00 in0.0 mm 0.00 in0.0 mm 0.00 in0.0 mm
03:20 AM 30.0°F-1.1°C 9.1°F-12.7°C 41% 1.0 mph WNW1.6 kmh WNW 15.0 mph24.1 kmh 210.67 in7134.1 mb 0.00 in0.0 mm 0.00 in0.0 mm 0.00 in0.0 mm
03:25 AM 30.0°F-1.1°C 9.1°F-12.7°C 41% 3.0 mph NNW4.8 kmh NNW 15.0 mph24.1 kmh 210.67 in7134.1 mb 0.00 in0.0 mm 0.00 in0.0 mm 0.00 in0.0 mm
03:30 AM 31.0°F-0.6°C 10.0°F-12.2°C 41% 6.0 mph NNW9.7 kmh NNW 15.0 mph24.1 kmh 210.66 in7133.8 mb 0.00 in0.0 mm 0.00 in0.0 mm 0.00 in0.0 mm
03:40 AM 31.0°F-0.6°C 10.0°F-12.2°C 41% 4.0 mph N6.4 kmh N 15.0 mph24.1 kmh 210.65 in7133.4 mb 0.00 in0.0 mm 0.00 in0.0 mm 0.00 in0.0 mm
03:45 AM 32.0°F0.0°C 10.9°F-11.7°C 41% 8.0 mph NW12.9 kmh NW 15.0 mph24.1 kmh 210.65 in7133.4 mb 0.00 in0.0 mm 0.00 in0.0 mm 0.00 in0.0 mm
03:50 AM 32.0°F0.0°C 10.9°F-11.7°C 41% 8.0 mph N12.9 kmh N 15.0 mph24.1 kmh 210.65 in7133.4 mb 0.00 in0.0 mm 0.00 in0.0 mm 0.00 in0.0 mm
03:55 AM 32.0°F0.0°C 10.9°F-11.7°C 41% 6.0 mph NW9.7 kmh NW 15.0 mph24.1 kmh 210.65 in7133.4 mb 0.00 in0.0 mm 0.00 in0.0 mm 0.00 in0.0 mm
04:00 AM 32.0°F0.0°C 10.9°F-11.7°C 41% 7.0 mph NNW11.3 kmh NNW 15.0 mph24.1 kmh 210.65 in7133.4 mb 0.00 in0.0 mm 0.00 in0.0 mm 0.00 in0.0 mm
04:05 AM 31.0°F-0.6°C 10.0°F-12.2°C 41% 9.0 mph N14.5 kmh N 15.0 mph24.1 kmh 210.65 in7133.4 mb 0.00 in0.0 mm 0.00 in0.0 mm 0.00 in0.0 mm
04:10 AM 31.0°F-0.6°C 10.0°F-12.2°C 41% 7.0 mph NNW11.3 kmh NNW 15.0 mph24.1 kmh 210.65 in7133.4 mb 0.00 in0.0 mm 0.00 in0.0 mm 0.00 in0.0 mm
04:15 AM 31.0°F-0.6°C 10.0°F-12.2°C 41% 5.0 mph NW8.0 kmh NW 15.0 mph24.1 kmh 210.65 in7133.4 mb 0.00 in0.0 mm 0.00 in0.0 mm 0.00 in0.0 mm
04:20 AM 31.0°F-0.6°C 10.0°F-12.2°C 41% 6.0 mph NNW9.7 kmh NNW 15.0 mph24.1 kmh 210.65 in7133.4 mb 0.00 in0.0 mm 0.00 in0.0 mm 0.00 in0.0 mm
04:25 AM 31.0°F-0.6°C 10.0°F-12.2°C 41% 4.0 mph NNW6.4 kmh NNW 15.0 mph24.1 kmh 210.65 in7133.4 mb 0.00 in0.0 mm 0.00 in0.0 mm 0.00 in0.0 mm
04:30 AM 31.0°F-0.6°C 10.0°F-12.2°C 41% 7.0 mph N11.3 kmh N 15.0 mph24.1 kmh 210.65 in7133.4 mb 0.00 in0.0 mm 0.00 in0.0 mm 0.00 in0.0 mm
04:35 AM 31.0°F-0.6°C 10.0°F-12.2°C 41% 7.0 mph N11.3 kmh N 15.0 mph24.1 kmh 210.65 in7133.4 mb 0.00 in0.0 mm 0.00 in0.0 mm 0.00 in0.0 mm
04:40 AM 31.0°F-0.6°C 10.0°F-12.2°C 41% 4.0 mph NNW6.4 kmh NNW 15.0 mph24.1 kmh 210.65 in7133.4 mb 0.00 in0.0 mm 0.00 in0.0 mm 0.00 in0.0 mm
04:45 AM 31.0°F-0.6°C 10.0°F-12.2°C 41% 7.0 mph N11.3 kmh N 15.0 mph24.1 kmh 210.65 in7133.4 mb 0.00 in0.0 mm 0.00 in0.0 mm 0.00 in0.0 mm
04:50 AM 31.0°F-0.6°C 10.0°F-12.2°C 41% 7.0 mph NNW11.3 kmh NNW 15.0 mph24.1 kmh 210.64 in7133.1 mb 0.00 in0.0 mm 0.00 in0.0 mm 0.00 in0.0 mm
04:55 AM 31.0°F-0.6°C 10.0°F-12.2°C 41% 3.0 mph NNW4.8 kmh NNW 15.0 mph24.1 kmh 210.64 in7133.1 mb 0.00 in0.0 mm 0.00 in0.0 mm 0.00 in0.0 mm
05:00 AM 31.0°F-0.6°C 10.0°F-12.2°C 41% 6.0 mph NNW9.7 kmh NNW 15.0 mph24.1 kmh 210.64 in7133.1 mb 0.00 in0.0 mm 0.00 in0.0 mm 0.00 in0.0 mm
05:05 AM 32.0°F0.0°C 10.9°F-11.7°C 41% 12.0 mph NW19.3 kmh NW 15.0 mph24.1 kmh 210.64 in7133.1 mb 0.00 in0.0 mm 0.00 in0.0 mm 0.00 in0.0 mm
05:10 AM 32.0°F0.0°C 10.9°F-11.7°C 41% 9.0 mph NW14.5 kmh NW 15.0 mph24.1 kmh 210.63 in7132.8 mb 0.00 in0.0 mm 0.00 in0.0 mm 0.00 in0.0 mm
05:15 AM 32.0°F0.0°C 10.9°F-11.7°C 41% 14.0 mph N22.5 kmh N 15.0 mph24.1 kmh 210.63 in7132.8 mb 0.00 in0.0 mm 0.00 in0.0 mm 0.00 in0.0 mm
05:20 AM 32.0°F0.0°C 10.9°F-11.7°C 41% 2.0 mph NE3.2 kmh NE 16.0 mph25.7 kmh 210.64 in7133.1 mb 0.00 in0.0 mm 0.00 in0.0 mm 0.00 in0.0 mm
05:25 AM 31.0°F-0.6°C 10.0°F-12.2°C 41% 5.0 mph NNW8.0 kmh NNW 16.0 mph25.7 kmh 210.64 in7133.1 mb 0.00 in0.0 mm 0.00 in0.0 mm 0.00 in0.0 mm
05:30 AM 31.0°F-0.6°C 10.0°F-12.2°C 41% 9.0 mph N14.5 kmh N 16.0 mph25.7 kmh 210.65 in7133.4 mb 0.00 in0.0 mm 0.00 in0.0 mm 0.00 in0.0 mm
05:35 AM 31.0°F-0.6°C 10.0°F-12.2°C 41% 7.0 mph NNW11.3 kmh NNW 16.0 mph25.7 kmh 210.65 in7133.4 mb 0.00 in0.0 mm 0.00 in0.0 mm 0.00 in0.0 mm
05:40 AM 31.0°F-0.6°C 10.0°F-12.2°C 41% 7.0 mph NNW11.3 kmh NNW 16.0 mph25.7 kmh 210.65 in7133.4 mb 0.00 in0.0 mm 0.00 in0.0 mm 0.00 in0.0 mm
05:45 AM 31.0°F-0.6°C 10.0°F-12.2°C 41% 6.0 mph NW9.7 kmh NW 16.0 mph25.7 kmh 210.65 in7133.4 mb 0.00 in0.0 mm 0.00 in0.0 mm 0.00 in0.0 mm
05:50 AM 31.0°F-0.6°C 10.0°F-12.2°C 41% 4.0 mph WNW6.4 kmh WNW 16.0 mph25.7 kmh 210.65 in7133.4 mb 0.00 in0.0 mm 0.00 in0.0 mm 0.00 in0.0 mm
05:55 AM 30.0°F-1.1°C 9.1°F-12.7°C 41% 6.0 mph NW9.7 kmh NW 16.0 mph25.7 kmh 210.65 in7133.4 mb 0.00 in0.0 mm 0.00 in0.0 mm 0.00 in0.0 mm
06:00 AM 30.0°F-1.1°C 9.1°F-12.7°C 41% 2.0 mph NW3.2 kmh NW 16.0 mph25.7 kmh 210.66 in7133.8 mb 0.00 in0.0 mm 0.00 in0.0 mm 0.00 in0.0 mm
06:05 AM 30.0°F-1.1°C 9.1°F-12.7°C 41% 5.0 mph NW8.0 kmh NW 16.0 mph25.7 kmh 210.66 in7133.8 mb 0.00 in0.0 mm 0.00 in0.0 mm 0.00 in0.0 mm
06:10 AM 30.0°F-1.1°C 9.1°F-12.7°C 41% 1.0 mph N1.6 kmh N 16.0 mph25.7 kmh 210.66 in7133.8 mb 0.00 in0.0 mm 0.00 in0.0 mm 0.00 in0.0 mm
06:15 AM 30.0°F-1.1°C 9.1°F-12.7°C 41% 2.0 mph NW3.2 kmh NW 16.0 mph25.7 kmh 210.66 in7133.8 mb 0.00 in0.0 mm 0.00 in0.0 mm 0.00 in0.0 mm
06:20 AM 30.0°F-1.1°C 9.1°F-12.7°C 41% 4.0 mph N6.4 kmh N 16.0 mph25.7 kmh 210.66 in7133.8 mb 0.00 in0.0 mm 0.00 in0.0 mm 0.00 in0.0 mm
06:25 AM 30.0°F-1.1°C 9.1°F-12.7°C 41% 1.0 mph N1.6 kmh N 16.0 mph25.7 kmh 210.66 in7133.8 mb 0.00 in0.0 mm 0.00 in0.0 mm 0.00 in0.0 mm
06:30 AM 30.0°F-1.1°C 9.1°F-12.7°C 41% 4.0 mph NNE6.4 kmh NNE 16.0 mph25.7 kmh 210.66 in7133.8 mb 0.00 in0.0 mm 0.00 in0.0 mm 0.00 in0.0 mm
06:35 AM 30.0°F-1.1°C 9.1°F-12.7°C 41% 2.0 mph NNE3.2 kmh NNE 16.0 mph25.7 kmh 210.66 in7133.8 mb 0.00 in0.0 mm 0.00 in0.0 mm 0.00 in0.0 mm
06:40 AM 31.0°F-0.6°C 10.0°F-12.2°C 41% 2.0 mph N3.2 kmh N 16.0 mph25.7 kmh 210.66 in7133.8 mb 0.00 in0.0 mm 0.00 in0.0 mm 0.00 in0.0 mm
06:45 AM 31.0°F-0.6°C 10.0°F-12.2°C 41% Calm Calm 16.0 mph25.7 kmh 210.66 in7133.8 mb 0.00 in0.0 mm 0.00 in0.0 mm 0.00 in0.0 mm
06:50 AM 30.0°F-1.1°C 9.1°F-12.7°C 41% Calm Calm 16.0 mph25.7 kmh 210.67 in7134.1 mb 0.00 in0.0 mm 0.00 in0.0 mm 0.00 in0.0 mm
06:55 AM 30.0°F-1.1°C 9.1°F-12.7°C 41% 3.0 mph SE4.8 kmh SE 16.0 mph25.7 kmh 210.67 in7134.1 mb 0.00 in0.0 mm 0.00 in0.0 mm 0.00 in0.0 mm
07:00 AM 29.0°F-1.7°C 7.7°F-13.5°C 40% 1.0 mph S1.6 kmh S 16.0 mph25.7 kmh 210.67 in7134.1 mb 0.00 in0.0 mm 0.00 in0.0 mm 0.00 in0.0 mm
07:05 AM 30.0°F-1.1°C 9.1°F-12.7°C 41% 5.0 mph SE8.0 kmh SE 16.0 mph25.7 kmh 210.67 in7134.1 mb 0.00 in0.0 mm 0.00 in0.0 mm 0.00 in0.0 mm
07:10 AM 29.0°F-1.7°C 7.7°F-13.5°C 40% 1.0 mph SE1.6 kmh SE 16.0 mph25.7 kmh 210.67 in7134.1 mb 0.00 in0.0 mm 0.00 in0.0 mm 0.00 in0.0 mm
07:15 AM 29.0°F-1.7°C 7.7°F-13.5°C 40% Calm Calm 16.0 mph25.7 kmh 210.67 in7134.1 mb 0.00 in0.0 mm 0.00 in0.0 mm 0.00 in0.0 mm
07:20 AM 29.0°F-1.7°C 7.7°F-13.5°C 40% Calm Calm 16.0 mph25.7 kmh 210.68 in7134.4 mb 0.00 in0.0 mm 0.00 in0.0 mm 0.00 in0.0 mm
07:25 AM 29.0°F-1.7°C 7.7°F-13.5°C 40% 2.0 mph NNE3.2 kmh NNE 16.0 mph25.7 kmh 210.68 in7134.4 mb 0.00 in0.0 mm 0.00 in0.0 mm 0.00 in0.0 mm
07:30 AM 29.0°F-1.7°C 7.7°F-13.5°C 40% Calm Calm 16.0 mph25.7 kmh 210.68 in7134.4 mb 0.00 in0.0 mm 0.00 in0.0 mm 0.00 in0.0 mm
07:35 AM 29.0°F-1.7°C 7.7°F-13.5°C 40% 4.0 mph WNW6.4 kmh WNW 16.0 mph25.7 kmh 210.68 in7134.4 mb 0.00 in0.0 mm 0.00 in0.0 mm 0.00 in0.0 mm
07:40 AM 30.0°F-1.1°C 9.1°F-12.7°C 41% 5.0 mph WNW8.0 kmh WNW 16.0 mph25.7 kmh 210.67 in7134.1 mb 0.00 in0.0 mm 0.00 in0.0 mm 0.00 in0.0 mm
07:45 AM 30.0°F-1.1°C 9.1°F-12.7°C 41% 6.0 mph NW9.7 kmh NW 16.0 mph25.7 kmh 210.67 in7134.1 mb 0.00 in0.0 mm 0.00 in0.0 mm 0.00 in0.0 mm
07:50 AM 30.0°F-1.1°C 9.1°F-12.7°C 41% 6.0 mph WNW9.7 kmh WNW 16.0 mph25.7 kmh 210.67 in7134.1 mb 0.00 in0.0 mm 0.00 in0.0 mm 0.00 in0.0 mm
07:55 AM 30.0°F-1.1°C 9.1°F-12.7°C 41% 5.0 mph WNW8.0 kmh WNW 16.0 mph25.7 kmh 210.67 in7134.1 mb 0.00 in0.0 mm 0.00 in0.0 mm 0.00 in0.0 mm
08:00 AM 29.0°F-1.7°C 7.7°F-13.5°C 40% 4.0 mph WNW6.4 kmh WNW 16.0 mph25.7 kmh 210.68 in7134.4 mb 0.00 in0.0 mm 0.00 in0.0 mm 0.00 in0.0 mm
08:05 AM 29.0°F-1.7°C 7.7°F-13.5°C 40% 3.0 mph WNW4.8 kmh WNW 16.0 mph25.7 kmh 210.68 in7134.4 mb 0.00 in0.0 mm 0.00 in0.0 mm 0.00 in0.0 mm
08:10 AM 29.0°F-1.7°C 7.7°F-13.5°C 40% 6.0 mph NW9.7 kmh NW 16.0 mph25.7 kmh 210.69 in7134.8 mb 0.00 in0.0 mm 0.00 in0.0 mm 0.00 in0.0 mm
08:15 AM 29.0°F-1.7°C 7.7°F-13.5°C 40% 4.0 mph WNW6.4 kmh WNW 16.0 mph25.7 kmh 210.69 in7134.8 mb 0.00 in0.0 mm 0.00 in0.0 mm 0.00 in0.0 mm
08:20 AM 29.0°F-1.7°C 7.7°F-13.5°C 40% 6.0 mph WNW9.7 kmh WNW 16.0 mph25.7 kmh 210.69 in7134.8 mb 0.00 in0.0 mm 0.00 in0.0 mm 0.00 in0.0 mm
08:25 AM 30.0°F-1.1°C 9.1°F-12.7°C 41% 4.0 mph WNW6.4 kmh WNW 16.0 mph25.7 kmh 210.69 in7134.8 mb 0.00 in0.0 mm 0.00 in0.0 mm 0.00 in0.0 mm
08:30 AM 30.0°F-1.1°C 9.1°F-12.7°C 41% 4.0 mph NW6.4 kmh NW 16.0 mph25.7 kmh 210.69 in7134.8 mb 0.00 in0.0 mm 0.00 in0.0 mm 0.00 in0.0 mm
08:35 AM 30.0°F-1.1°C 9.1°F-12.7°C 41% 5.0 mph WNW8.0 kmh WNW 16.0 mph25.7 kmh 210.69 in7134.8 mb 0.00 in0.0 mm 0.00 in0.0 mm 0.00 in0.0 mm
08:40 AM 31.0°F-0.6°C 10.0°F-12.2°C 41% 2.0 mph NW3.2 kmh NW 16.0 mph25.7 kmh 210.69 in7134.8 mb 0.00 in0.0 mm 0.00 in0.0 mm 0.00 in0.0 mm
08:45 AM 32.0°F0.0°C 10.9°F-11.7°C 41% 3.0 mph N4.8 kmh N 16.0 mph25.7 kmh 210.69 in7134.8 mb 0.00 in0.0 mm 0.00 in0.0 mm 0.00 in0.0 mm
08:50 AM 33.0°F0.6°C 11.9°F-11.2°C 41% 4.0 mph N6.4 kmh N 16.0 mph25.7 kmh 210.69 in7134.8 mb 0.00 in0.0 mm 0.00 in0.0 mm 0.00 in0.0 mm
08:55 AM 34.0°F1.1°C 12.8°F-10.7°C 41% 5.0 mph N8.0 kmh N 16.0 mph25.7 kmh 210.69 in7134.8 mb 0.00 in0.0 mm 0.00 in0.0 mm 0.00 in0.0 mm
09:00 AM 35.0°F1.7°C 13.7°F-10.2°C 41% 2.0 mph NE3.2 kmh NE 16.0 mph25.7 kmh 210.69 in7134.8 mb 0.00 in0.0 mm 0.00 in0.0 mm 0.00 in0.0 mm
09:05 AM 35.0°F1.7°C 13.7°F-10.2°C 41% 3.0 mph NW4.8 kmh NW 16.0 mph25.7 kmh 210.69 in7134.8 mb 0.00 in0.0 mm 0.00 in0.0 mm 0.00 in0.0 mm
09:10 AM 36.0°F2.2°C 14.6°F-9.7°C 41% 6.0 mph N9.7 kmh N 16.0 mph25.7 kmh 210.68 in7134.4 mb 0.00 in0.0 mm 0.00 in0.0 mm 0.00 in0.0 mm
09:15 AM 37.0°F2.8°C 15.5°F-9.2°C 41% 6.0 mph NNE9.7 kmh NNE 16.0 mph25.7 kmh 210.68 in7134.4 mb 0.00 in0.0 mm 0.00 in0.0 mm 0.00 in0.0 mm
09:20 AM 37.0°F2.8°C 15.5°F-9.2°C 41% Calm Calm 16.0 mph25.7 kmh 210.68 in7134.4 mb 0.00 in0.0 mm 0.00 in0.0 mm 0.00 in0.0 mm
09:25 AM 38.0°F3.3°C 16.4°F-8.7°C 41% 3.0 mph NW4.8 kmh NW 16.0 mph25.7 kmh 210.68 in7134.4 mb 0.00 in0.0 mm 0.00 in0.0 mm 0.00 in0.0 mm
09:30 AM 39.0°F3.9°C 17.3°F-8.2°C 41% 6.0 mph NNE9.7 kmh NNE 16.0 mph25.7 kmh 210.67 in7134.1 mb 0.00 in0.0 mm 0.00 in0.0 mm 0.00 in0.0 mm
09:35 AM 39.0°F3.9°C 17.3°F-8.2°C 41% 2.0 mph NW3.2 kmh NW 16.0 mph25.7 kmh 210.67 in7134.1 mb 0.00 in0.0 mm 0.00 in0.0 mm 0.00 in0.0 mm
09:40 AM 39.0°F3.9°C 17.3°F-8.2°C 41% 1.0 mph N1.6 kmh N 16.0 mph25.7 kmh 210.68 in7134.4 mb 0.00 in0.0 mm 0.00 in0.0 mm 0.00 in0.0 mm
09:45 AM 39.0°F3.9°C 17.3°F-8.2°C 41% 4.0 mph N6.4 kmh N 16.0 mph25.7 kmh 210.68 in7134.4 mb 0.00 in0.0 mm 0.00 in0.0 mm 0.00 in0.0 mm
09:50 AM 40.0°F4.4°C 18.2°F-7.7°C 41% 1.0 mph N1.6 kmh N 16.0 mph25.7 kmh 210.69 in7134.8 mb 0.00 in0.0 mm 0.00 in0.0 mm 0.00 in0.0 mm
09:55 AM 41.0°F5.0°C 19.1°F-7.2°C 41% 1.0 mph NW1.6 kmh NW 16.0 mph25.7 kmh 210.69 in7134.8 mb 0.00 in0.0 mm 0.00 in0.0 mm 0.00 in0.0 mm
10:00 AM 41.0°F5.0°C 19.1°F-7.2°C 41% 7.0 mph WNW11.3 kmh WNW 16.0 mph25.7 kmh 210.68 in7134.4 mb 0.00 in0.0 mm 0.00 in0.0 mm 0.00 in0.0 mm
10:05 AM 41.0°F5.0°C 19.1°F-7.2°C 41% 5.0 mph WNW8.0 kmh WNW 16.0 mph25.7 kmh 210.68 in7134.4 mb 0.00 in0.0 mm 0.00 in0.0 mm 0.00 in0.0 mm
10:10 AM 41.0°F5.0°C 19.1°F-7.2°C 41% 2.0 mph NW3.2 kmh NW 16.0 mph25.7 kmh 210.69 in7134.8 mb 0.00 in0.0 mm 0.00 in0.0 mm 0.00 in0.0 mm
10:15 AM 42.0°F5.6°C 20.0°F-6.7°C 41% 2.0 mph NW3.2 kmh NW 16.0 mph25.7 kmh 210.69 in7134.8 mb 0.00 in0.0 mm 0.00 in0.0 mm 0.00 in0.0 mm
10:20 AM 42.0°F5.6°C 20.0°F-6.7°C 41% 6.0 mph WNW9.7 kmh WNW 16.0 mph25.7 kmh 210.68 in7134.4 mb 0.00 in0.0 mm 0.00 in0.0 mm 0.00 in0.0 mm
10:25 AM 42.0°F5.6°C 20.0°F-6.7°C 41% 1.0 mph W1.6 kmh W 16.0 mph25.7 kmh 210.68 in7134.4 mb 0.00 in0.0 mm 0.00 in0.0 mm 0.00 in0.0 mm
10:30 AM 43.0°F6.1°C 21.4°F-5.9°C 42% 3.0 mph N4.8 kmh N 16.0 mph25.7 kmh 210.67 in7134.1 mb 0.00 in0.0 mm 0.00 in0.0 mm 0.00 in0.0 mm
10:35 AM 44.0°F6.7°C 22.4°F-5.3°C 42% 3.0 mph NW4.8 kmh NW 16.0 mph25.7 kmh 210.67 in7134.1 mb 0.00 in0.0 mm 0.00 in0.0 mm 0.00 in0.0 mm
10:40 AM 44.0°F6.7°C 22.4°F-5.3°C 42% 2.0 mph NW3.2 kmh NW 16.0 mph25.7 kmh 210.67 in7134.1 mb 0.00 in0.0 mm 0.00 in0.0 mm 0.00 in0.0 mm
10:45 AM 45.0°F7.2°C 23.3°F-4.8°C 42% Calm Calm 16.0 mph25.7 kmh 210.67 in7134.1 mb 0.00 in0.0 mm 0.00 in0.0 mm 0.00 in0.0 mm
10:50 AM 46.0°F7.8°C 24.2°F-4.3°C 42% Calm Calm 16.0 mph25.7 kmh 210.66 in7133.8 mb 0.00 in0.0 mm 0.00 in0.0 mm 0.00 in0.0 mm
10:55 AM 46.0°F7.8°C 24.2°F-4.3°C 42% 5.0 mph ENE8.0 kmh ENE 16.0 mph25.7 kmh 210.66 in7133.8 mb 0.00 in0.0 mm 0.00 in0.0 mm 0.00 in0.0 mm
11:00 AM 47.0°F8.3°C 25.1°F-3.8°C 42% 1.0 mph NNE1.6 kmh NNE 16.0 mph25.7 kmh 210.65 in7133.4 mb 0.00 in0.0 mm 0.00 in0.0 mm 0.00 in0.0 mm
11:05 AM 47.0°F8.3°C 25.1°F-3.8°C 42% 1.0 mph ENE1.6 kmh ENE 16.0 mph25.7 kmh 210.65 in7133.4 mb 0.00 in0.0 mm 0.00 in0.0 mm 0.00 in0.0 mm
11:10 AM 47.0°F8.3°C 25.1°F-3.8°C 42% Calm Calm 16.0 mph25.7 kmh 210.64 in7133.1 mb 0.00 in0.0 mm 0.00 in0.0 mm 0.00 in0.0 mm
11:15 AM 48.0°F8.9°C 26.0°F-3.3°C 42% Calm Calm 16.0 mph25.7 kmh 210.64 in7133.1 mb 0.00 in0.0 mm 0.00 in0.0 mm 0.00 in0.0 mm
11:20 AM 48.0°F8.9°C 26.0°F-3.3°C 42% 1.0 mph NE1.6 kmh NE 16.0 mph25.7 kmh 210.63 in7132.8 mb 0.00 in0.0 mm 0.00 in0.0 mm 0.00 in0.0 mm
11:25 AM 49.0°F9.4°C 26.9°F-2.8°C 42% Calm Calm 16.0 mph25.7 kmh 210.63 in7132.8 mb 0.00 in0.0 mm 0.00 in0.0 mm 0.00 in0.0 mm
11:30 AM 49.0°F9.4°C 26.9°F-2.8°C 42% Calm Calm 16.0 mph25.7 kmh 210.63 in7132.8 mb 0.00 in0.0 mm 0.00 in0.0 mm 0.00 in0.0 mm
11:35 AM 49.0°F9.4°C 26.9°F-2.8°C 42% 2.0 mph W3.2 kmh W 16.0 mph25.7 kmh 210.63 in7132.8 mb 0.00 in0.0 mm 0.00 in0.0 mm 0.00 in0.0 mm
11:40 AM 49.0°F9.4°C 26.9°F-2.8°C 42% 3.0 mph WSW4.8 kmh WSW 16.0 mph25.7 kmh 210.61 in7132.1 mb 0.00 in0.0 mm 0.00 in0.0 mm 0.00 in0.0 mm
11:45 AM 50.0°F10.0°C 27.8°F-2.3°C 42% 1.0 mph E1.6 kmh E 16.0 mph25.7 kmh 210.61 in7132.1 mb 0.00 in0.0 mm 0.00 in0.0 mm 0.00 in0.0 mm
11:50 AM 50.0°F10.0°C 27.8°F-2.3°C 42% Calm Calm 16.0 mph25.7 kmh 210.61 in7132.1 mb 0.00 in0.0 mm 0.00 in0.0 mm 0.00 in0.0 mm
11:55 AM 51.0°F10.6°C 29.3°F-1.5°C 43% 2.0 mph N3.2 kmh N 16.0 mph25.7 kmh 210.61 in7132.1 mb 0.00 in0.0 mm 0.00 in0.0 mm 0.00 in0.0 mm
12:00 PM 51.0°F10.6°C 29.3°F-1.5°C 43% 2.0 mph NW3.2 kmh NW 16.0 mph25.7 kmh 210.61 in7132.1 mb 0.00 in0.0 mm 0.00 in0.0 mm 0.00 in0.0 mm
12:05 PM 52.0°F11.1°C 30.2°F-1.0°C 43% 2.0 mph SSW3.2 kmh SSW 16.0 mph25.7 kmh 210.61 in7132.1 mb 0.00 in0.0 mm 0.00 in0.0 mm 0.00 in0.0 mm
12:10 PM 52.0°F11.1°C 30.2°F-1.0°C 43% 2.0 mph SW3.2 kmh SW 16.0 mph25.7 kmh 210.61 in7132.1 mb 0.00 in0.0 mm 0.00 in0.0 mm 0.00 in0.0 mm
12:15 PM 52.0°F11.1°C 30.2°F-1.0°C 43% 2.0 mph SSW3.2 kmh SSW 16.0 mph25.7 kmh 210.61 in7132.1 mb 0.00 in0.0 mm 0.00 in0.0 mm 0.00 in0.0 mm
12:20 PM 52.0°F11.1°C 30.2°F-1.0°C 43% 5.0 mph SSW8.0 kmh SSW 16.0 mph25.7 kmh 210.60 in7131.7 mb 0.00 in0.0 mm 0.00 in0.0 mm 0.00 in0.0 mm
12:25 PM 52.0°F11.1°C 30.2°F-1.0°C 43% 3.0 mph S4.8 kmh S 16.0 mph25.7 kmh 210.60 in7131.7 mb 0.00 in0.0 mm 0.00 in0.0 mm 0.00 in0.0 mm
12:30 PM 52.0°F11.1°C 30.2°F-1.0°C 43% 2.0 mph WSW3.2 kmh WSW 16.0 mph25.7 kmh 210.60 in7131.7 mb 0.00 in0.0 mm 0.00 in0.0 mm 0.00 in0.0 mm
12:35 PM 52.0°F11.1°C 30.2°F-1.0°C 43% 2.0 mph N3.2 kmh N 16.0 mph25.7 kmh 210.60 in7131.7 mb 0.00 in0.0 mm 0.00 in0.0 mm 0.00 in0.0 mm
12:40 PM 53.0°F11.7°C 31.1°F-0.5°C 43% 1.0 mph S1.6 kmh S 16.0 mph25.7 kmh 210.59 in7131.4 mb 0.00 in0.0 mm 0.00 in0.0 mm 0.00 in0.0 mm
12:45 PM 53.0°F11.7°C 31.1°F-0.5°C 43% Calm Calm 16.0 mph25.7 kmh 210.59 in7131.4 mb 0.00 in0.0 mm 0.00 in0.0 mm 0.00 in0.0 mm
12:50 PM 54.0°F12.2°C 32.0°F0.0°C 43% Calm Calm 16.0 mph25.7 kmh 210.58 in7131.1 mb 0.00 in0.0 mm 0.00 in0.0 mm 0.00 in0.0 mm
12:55 PM 54.0°F12.2°C 32.0°F0.0°C 43% 1.0 mph N1.6 kmh N 16.0 mph25.7 kmh 210.58 in7131.1 mb 0.00 in0.0 mm 0.00 in0.0 mm 0.00 in0.0 mm
01:00 PM 55.0°F12.8°C 32.9°F0.5°C 43% 1.0 mph NW1.6 kmh NW 16.0 mph25.7 kmh 210.57 in7130.7 mb 0.00 in0.0 mm 0.00 in0.0 mm 0.00 in0.0 mm
01:05 PM 55.0°F12.8°C 32.9°F0.5°C 43% 4.0 mph NE6.4 kmh NE 16.0 mph25.7 kmh 210.57 in7130.7 mb 0.00 in0.0 mm 0.00 in0.0 mm 0.00 in0.0 mm
01:10 PM 55.0°F12.8°C 32.9°F0.5°C 43% Calm Calm 16.0 mph25.7 kmh 210.57 in7130.7 mb 0.00 in0.0 mm 0.00 in0.0 mm 0.00 in0.0 mm
01:15 PM 55.0°F12.8°C 32.9°F0.5°C 43% 3.0 mph SSE4.8 kmh SSE 16.0 mph25.7 kmh 210.57 in7130.7 mb 0.00 in0.0 mm 0.00 in0.0 mm 0.00 in0.0 mm
01:20 PM 55.0°F12.8°C 32.9°F0.5°C 43% 1.0 mph SSW1.6 kmh SSW 16.0 mph25.7 kmh 210.57 in7130.7 mb 0.00 in0.0 mm 0.00 in0.0 mm 0.00 in0.0 mm
01:25 PM 55.0°F12.8°C 32.9°F0.5°C 43% 2.0 mph WNW3.2 kmh WNW 16.0 mph25.7 kmh 210.57 in7130.7 mb 0.00 in0.0 mm 0.00 in0.0 mm 0.00 in0.0 mm
01:30 PM 55.0°F12.8°C 32.9°F0.5°C 43% Calm Calm 16.0 mph25.7 kmh 210.57 in7130.7 mb 0.00 in0.0 mm 0.00 in0.0 mm 0.00 in0.0 mm
01:35 PM 56.0°F13.3°C 33.8°F1.0°C 43% 1.0 mph ENE1.6 kmh ENE 16.0 mph25.7 kmh 210.57 in7130.7 mb 0.00 in0.0 mm 0.00 in0.0 mm 0.00 in0.0 mm
01:40 PM 56.0°F13.3°C 33.8°F1.0°C 43% 2.0 mph SE3.2 kmh SE 16.0 mph25.7 kmh 210.56 in7130.4 mb 0.00 in0.0 mm 0.00 in0.0 mm 0.00 in0.0 mm
01:45 PM 56.0°F13.3°C 33.8°F1.0°C 43% 1.0 mph WSW1.6 kmh WSW 16.0 mph25.7 kmh 210.56 in7130.4 mb 0.00 in0.0 mm 0.00 in0.0 mm 0.00 in0.0 mm
01:50 PM 55.0°F12.8°C 32.9°F0.5°C 43% 1.0 mph S1.6 kmh S 16.0 mph25.7 kmh 210.56 in7130.4 mb 0.00 in0.0 mm 0.00 in0.0 mm 0.00 in0.0 mm
01:55 PM 56.0°F13.3°C 33.8°F1.0°C 43% 1.0 mph SE1.6 kmh SE 16.0 mph25.7 kmh 210.56 in7130.4 mb 0.00 in0.0 mm 0.00 in0.0 mm 0.00 in0.0 mm
02:00 PM 56.0°F13.3°C 33.8°F1.0°C 43% Calm Calm 16.0 mph25.7 kmh 210.56 in7130.4 mb 0.00 in0.0 mm 0.00 in0.0 mm 0.00 in0.0 mm
02:05 PM 56.0°F13.3°C 33.8°F1.0°C 43% Calm Calm 16.0 mph25.7 kmh 210.56 in7130.4 mb 0.00 in0.0 mm 0.00 in0.0 mm 0.00 in0.0 mm
02:10 PM 56.0°F13.3°C 33.8°F1.0°C 43% Calm Calm 16.0 mph25.7 kmh 210.56 in7130.4 mb 0.00 in0.0 mm 0.00 in0.0 mm 0.00 in0.0 mm
02:15 PM 57.0°F13.9°C 34.7°F1.5°C 43% 3.0 mph SSE4.8 kmh SSE 16.0 mph25.7 kmh 210.56 in7130.4 mb 0.00 in0.0 mm 0.00 in0.0 mm 0.00 in0.0 mm
02:20 PM 56.0°F13.3°C 33.8°F1.0°C 43% 4.0 mph WNW6.4 kmh WNW 16.0 mph25.7 kmh 210.57 in7130.7 mb 0.00 in0.0 mm 0.00 in0.0 mm 0.00 in0.0 mm
02:25 PM 56.0°F13.3°C 33.8°F1.0°C 43% 4.0 mph W6.4 kmh W 16.0 mph25.7 kmh 210.57 in7130.7 mb 0.00 in0.0 mm 0.00 in0.0 mm 0.00 in0.0 mm
02:30 PM 55.0°F12.8°C 32.9°F0.5°C 43% 1.0 mph NW1.6 kmh NW 16.0 mph25.7 kmh 210.58 in7131.1 mb 0.00 in0.0 mm 0.00 in0.0 mm 0.00 in0.0 mm
02:35 PM 56.0°F13.3°C 33.8°F1.0°C 43% 4.0 mph S6.4 kmh S 16.0 mph25.7 kmh 210.58 in7131.1 mb 0.00 in0.0 mm 0.00 in0.0 mm 0.00 in0.0 mm
02:40 PM 56.0°F13.3°C 33.8°F1.0°C 43% 1.0 mph S1.6 kmh S 16.0 mph25.7 kmh 210.58 in7131.1 mb 0.00 in0.0 mm 0.00 in0.0 mm 0.00 in0.0 mm
02:45 PM 56.0°F13.3°C 33.8°F1.0°C 43% Calm Calm 16.0 mph25.7 kmh 210.58 in7131.1 mb 0.00 in0.0 mm 0.00 in0.0 mm 0.00 in0.0 mm
02:50 PM 57.0°F13.9°C 34.7°F1.5°C 43% Calm Calm 16.0 mph25.7 kmh 210.57 in7130.7 mb 0.00 in0.0 mm 0.00 in0.0 mm 0.00 in0.0 mm
02:55 PM 58.0°F14.4°C 35.6°F2.0°C 43% 1.0 mph NE1.6 kmh NE 16.0 mph25.7 kmh 210.57 in7130.7 mb 0.00 in0.0 mm 0.00 in0.0 mm 0.00 in0.0 mm
03:00 PM 58.0°F14.4°C 35.6°F2.0°C 43% 2.0 mph SW3.2 kmh SW 16.0 mph25.7 kmh 210.57 in7130.7 mb 0.00 in0.0 mm 0.00 in0.0 mm 0.00 in0.0 mm
03:05 PM 57.0°F13.9°C 34.7°F1.5°C 43% Calm Calm 16.0 mph25.7 kmh 210.57 in7130.7 mb 0.00 in0.0 mm 0.00 in0.0 mm 0.00 in0.0 mm
03:10 PM 57.0°F13.9°C 34.7°F1.5°C 43% 2.0 mph NE3.2 kmh NE 16.0 mph25.7 kmh 210.57 in7130.7 mb 0.00 in0.0 mm 0.00 in0.0 mm 0.00 in0.0 mm
03:15 PM 57.0°F13.9°C 34.7°F1.5°C 43% 2.0 mph N3.2 kmh N 16.0 mph25.7 kmh 210.57 in7130.7 mb 0.00 in0.0 mm 0.00 in0.0 mm 0.00 in0.0 mm
03:20 PM 57.0°F13.9°C 34.7°F1.5°C 43% 2.0 mph SW3.2 kmh SW 16.0 mph25.7 kmh 210.57 in7130.7 mb 0.00 in0.0 mm 0.00 in0.0 mm 0.00 in0.0 mm
03:25 PM 56.0°F13.3°C 33.8°F1.0°C 43% 3.0 mph S4.8 kmh S 16.0 mph25.7 kmh 210.57 in7130.7 mb 0.00 in0.0 mm 0.00 in0.0 mm 0.00 in0.0 mm
03:30 PM 55.0°F12.8°C 32.9°F0.5°C 43% 2.0 mph SE3.2 kmh SE 16.0 mph25.7 kmh 210.58 in7131.1 mb 0.00 in0.0 mm 0.00 in0.0 mm 0.00 in0.0 mm
03:35 PM 55.0°F12.8°C 32.9°F0.5°C 43% Calm Calm 16.0 mph25.7 kmh 210.58 in7131.1 mb 0.00 in0.0 mm 0.00 in0.0 mm 0.00 in0.0 mm
03:40 PM 56.0°F13.3°C 33.8°F1.0°C 43% 1.0 mph S1.6 kmh S 16.0 mph25.7 kmh 210.58 in7131.1 mb 0.00 in0.0 mm 0.00 in0.0 mm 0.00 in0.0 mm
03:45 PM 55.0°F12.8°C 33.4°F0.8°C 44% 5.0 mph S8.0 kmh S 16.0 mph25.7 kmh 210.58 in7131.1 mb 0.00 in0.0 mm 0.00 in0.0 mm 0.00 in0.0 mm
03:50 PM 55.0°F12.8°C 32.9°F0.5°C 43% 4.0 mph S6.4 kmh S 16.0 mph25.7 kmh 210.59 in7131.4 mb 0.00 in0.0 mm 0.00 in0.0 mm 0.00 in0.0 mm
03:55 PM 55.0°F12.8°C 32.9°F0.5°C 43% Calm Calm 16.0 mph25.7 kmh 210.59 in7131.4 mb 0.00 in0.0 mm 0.00 in0.0 mm 0.00 in0.0 mm
04:00 PM 55.0°F12.8°C 32.9°F0.5°C 43% 2.0 mph SSE3.2 kmh SSE 16.0 mph25.7 kmh 210.59 in7131.4 mb 0.00 in0.0 mm 0.00 in0.0 mm 0.00 in0.0 mm
04:05 PM 55.0°F12.8°C 32.9°F0.5°C 43% 1.0 mph SSE1.6 kmh SSE 16.0 mph25.7 kmh 210.59 in7131.4 mb 0.00 in0.0 mm 0.00 in0.0 mm 0.00 in0.0 mm
04:10 PM 55.0°F12.8°C 32.9°F0.5°C 43% 1.0 mph S1.6 kmh S 16.0 mph25.7 kmh 210.59 in7131.4 mb 0.00 in0.0 mm 0.00 in0.0 mm 0.00 in0.0 mm
04:15 PM 55.0°F12.8°C 32.3°F0.2°C 42% Calm Calm 16.0 mph25.7 kmh 210.59 in7131.4 mb 0.00 in0.0 mm 0.00 in0.0 mm 0.00 in0.0 mm
04:20 PM 55.0°F12.8°C 32.9°F0.5°C 43% 4.0 mph SSE6.4 kmh SSE 16.0 mph25.7 kmh 210.59 in7131.4 mb 0.00 in0.0 mm 0.00 in0.0 mm 0.00 in0.0 mm
04:25 PM 54.0°F12.2°C 32.0°F0.0°C 43% Calm Calm 16.0 mph25.7 kmh 210.59 in7131.4 mb 0.00 in0.0 mm 0.00 in0.0 mm 0.00 in0.0 mm
04:30 PM 54.0°F12.2°C 32.0°F0.0°C 43% 5.0 mph SSW8.0 kmh SSW 16.0 mph25.7 kmh 210.59 in7131.4 mb 0.00 in0.0 mm 0.00 in0.0 mm 0.00 in0.0 mm
04:35 PM 53.0°F11.7°C 31.1°F-0.5°C 43% 3.0 mph S4.8 kmh S 16.0 mph25.7 kmh 210.59 in7131.4 mb 0.00 in0.0 mm 0.00 in0.0 mm 0.00 in0.0 mm
04:40 PM 53.0°F11.7°C 31.1°F-0.5°C 43% 2.0 mph SSW3.2 kmh SSW 16.0 mph25.7 kmh 210.60 in7131.7 mb 0.00 in0.0 mm 0.00 in0.0 mm 0.00 in0.0 mm
04:45 PM 52.0°F11.1°C 30.2°F-1.0°C 43% 1.0 mph S1.6 kmh S 16.0 mph25.7 kmh 210.60 in7131.7 mb 0.00 in0.0 mm 0.00 in0.0 mm 0.00 in0.0 mm
04:50 PM 52.0°F11.1°C 30.2°F-1.0°C 43% 3.0 mph S4.8 kmh S 16.0 mph25.7 kmh 210.60 in7131.7 mb 0.00 in0.0 mm 0.00 in0.0 mm 0.00 in0.0 mm
04:55 PM 51.0°F10.6°C 29.3°F-1.5°C 43% 2.0 mph SSW3.2 kmh SSW 16.0 mph25.7 kmh 210.60 in7131.7 mb 0.00 in0.0 mm 0.00 in0.0 mm 0.00 in0.0 mm
05:00 PM 51.0°F10.6°C 29.3°F-1.5°C 43% Calm Calm 16.0 mph25.7 kmh 210.61 in7132.1 mb 0.00 in0.0 mm 0.00 in0.0 mm 0.00 in0.0 mm
05:05 PM 50.0°F10.0°C 27.8°F-2.3°C 42% 2.0 mph SW3.2 kmh SW 16.0 mph25.7 kmh 210.61 in7132.1 mb 0.00 in0.0 mm 0.00 in0.0 mm 0.00 in0.0 mm
05:10 PM 50.0°F10.0°C 27.8°F-2.3°C 42% Calm Calm 16.0 mph25.7 kmh 210.61 in7132.1 mb 0.00 in0.0 mm 0.00 in0.0 mm 0.00 in0.0 mm
05:15 PM 49.0°F9.4°C 26.9°F-2.8°C 42% Calm Calm 16.0 mph25.7 kmh 210.61 in7132.1 mb 0.00 in0.0 mm 0.00 in0.0 mm 0.00 in0.0 mm
05:20 PM 48.0°F8.9°C 26.0°F-3.3°C 42% Calm Calm 16.0 mph25.7 kmh 210.61 in7132.1 mb 0.00 in0.0 mm 0.00 in0.0 mm 0.00 in0.0 mm
05:25 PM 47.0°F8.3°C 25.1°F-3.8°C 42% Calm Calm 16.0 mph25.7 kmh 210.61 in7132.1 mb 0.00 in0.0 mm 0.00 in0.0 mm 0.00 in0.0 mm
05:30 PM 46.0°F7.8°C 24.2°F-4.3°C 42% Calm Calm 16.0 mph25.7 kmh 210.61 in7132.1 mb 0.00 in0.0 mm 0.00 in0.0 mm 0.00 in0.0 mm
05:35 PM 46.0°F7.8°C 24.2°F-4.3°C 42% Calm Calm 16.0 mph25.7 kmh 210.61 in7132.1 mb 0.00 in0.0 mm 0.00 in0.0 mm 0.00 in0.0 mm
05:40 PM 45.0°F7.2°C 23.3°F-4.8°C 42% 2.0 mph ESE3.2 kmh ESE 16.0 mph25.7 kmh 210.61 in7132.1 mb 0.00 in0.0 mm 0.00 in0.0 mm 0.00 in0.0 mm
05:45 PM 45.0°F7.2°C 23.3°F-4.8°C 42% Calm Calm 16.0 mph25.7 kmh 210.61 in7132.1 mb 0.00 in0.0 mm 0.00 in0.0 mm 0.00 in0.0 mm
05:50 PM 45.0°F7.2°C 23.3°F-4.8°C 42% Calm Calm 16.0 mph25.7 kmh 210.62 in7132.4 mb 0.00 in0.0 mm 0.00 in0.0 mm 0.00 in0.0 mm
05:55 PM 45.0°F7.2°C 23.3°F-4.8°C 42% Calm Calm 16.0 mph25.7 kmh 210.62 in7132.4 mb 0.00 in0.0 mm 0.00 in0.0 mm 0.00 in0.0 mm
06:00 PM 45.0°F7.2°C 23.3°F-4.8°C 42% Calm Calm 16.0 mph25.7 kmh 210.61 in7132.1 mb 0.00 in0.0 mm 0.00 in0.0 mm 0.00 in0.0 mm
06:05 PM 45.0°F7.2°C 23.3°F-4.8°C 42% Calm Calm 16.0 mph25.7 kmh 210.61 in7132.1 mb 0.00 in0.0 mm 0.00 in0.0 mm 0.00 in0.0 mm
06:10 PM 45.0°F7.2°C 23.3°F-4.8°C 42% Calm Calm 16.0 mph25.7 kmh 210.61 in7132.1 mb 0.00 in0.0 mm 0.00 in0.0 mm 0.00 in0.0 mm
06:15 PM 45.0°F7.2°C 23.3°F-4.8°C 42% Calm Calm 16.0 mph25.7 kmh 210.61 in7132.1 mb 0.00 in0.0 mm 0.00 in0.0 mm 0.00 in0.0 mm
06:20 PM 45.0°F7.2°C 23.3°F-4.8°C 42% Calm Calm 16.0 mph25.7 kmh 210.60 in7131.7 mb 0.00 in0.0 mm 0.00 in0.0 mm 0.00 in0.0 mm
06:25 PM 45.0°F7.2°C 23.3°F-4.8°C 42% Calm Calm 16.0 mph25.7 kmh 210.60 in7131.7 mb 0.00 in0.0 mm 0.00 in0.0 mm 0.00 in0.0 mm
06:30 PM 45.0°F7.2°C 23.3°F-4.8°C 42% Calm Calm 16.0 mph25.7 kmh 210.59 in7131.4 mb 0.00 in0.0 mm 0.00 in0.0 mm 0.00 in0.0 mm
06:35 PM 45.0°F7.2°C 23.3°F-4.8°C 42% 3.0 mph NW4.8 kmh NW 16.0 mph25.7 kmh 210.59 in7131.4 mb 0.00 in0.0 mm 0.00 in0.0 mm 0.00 in0.0 mm
06:40 PM 45.0°F7.2°C 23.3°F-4.8°C 42% 1.0 mph NW1.6 kmh NW 16.0 mph25.7 kmh 210.60 in7131.7 mb 0.00 in0.0 mm 0.00 in0.0 mm 0.00 in0.0 mm
06:45 PM 45.0°F7.2°C 23.3°F-4.8°C 42% Calm Calm 16.0 mph25.7 kmh 210.60 in7131.7 mb 0.00 in0.0 mm 0.00 in0.0 mm 0.00 in0.0 mm
06:50 PM 44.0°F6.7°C 22.4°F-5.3°C 42% 1.0 mph NW1.6 kmh NW 16.0 mph25.7 kmh 210.60 in7131.7 mb 0.00 in0.0 mm 0.00 in0.0 mm 0.00 in0.0 mm
06:55 PM 44.0°F6.7°C 22.4°F-5.3°C 42% 3.0 mph NW4.8 kmh NW 16.0 mph25.7 kmh 210.60 in7131.7 mb 0.00 in0.0 mm 0.00 in0.0 mm 0.00 in0.0 mm
07:00 PM 44.0°F6.7°C 22.4°F-5.3°C 42% 2.0 mph W3.2 kmh W 16.0 mph25.7 kmh 210.60 in7131.7 mb 0.00 in0.0 mm 0.00 in0.0 mm 0.00 in0.0 mm
07:05 PM 44.0°F6.7°C 22.4°F-5.3°C 42% 1.0 mph WNW1.6 kmh WNW 16.0 mph25.7 kmh 210.60 in7131.7 mb 0.00 in0.0 mm 0.00 in0.0 mm 0.00 in0.0 mm
07:10 PM 44.0°F6.7°C 22.4°F-5.3°C 42% 1.0 mph WNW1.6 kmh WNW 16.0 mph25.7 kmh 210.61 in7132.1 mb 0.00 in0.0 mm 0.00 in0.0 mm 0.00 in0.0 mm
07:15 PM 44.0°F6.7°C 22.4°F-5.3°C 42% 2.0 mph WNW3.2 kmh WNW 16.0 mph25.7 kmh 210.61 in7132.1 mb 0.00 in0.0 mm 0.00 in0.0 mm 0.00 in0.0 mm
07:20 PM 45.0°F7.2°C 23.3°F-4.8°C 42% 2.0 mph WNW3.2 kmh WNW 16.0 mph25.7 kmh 210.60 in7131.7 mb 0.00 in0.0 mm 0.00 in0.0 mm 0.00 in0.0 mm
07:25 PM 44.0°F6.7°C 22.4°F-5.3°C 42% Calm Calm 16.0 mph25.7 kmh 210.60 in7131.7 mb 0.00 in0.0 mm 0.00 in0.0 mm 0.00 in0.0 mm
07:30 PM 44.0°F6.7°C 22.4°F-5.3°C 42% 3.0 mph NW4.8 kmh NW 16.0 mph25.7 kmh 210.61 in7132.1 mb 0.00 in0.0 mm 0.00 in0.0 mm 0.00 in0.0 mm
07:35 PM 44.0°F6.7°C 22.4°F-5.3°C 42% 2.0 mph NW3.2 kmh NW 16.0 mph25.7 kmh 210.61 in7132.1 mb 0.00 in0.0 mm 0.00 in0.0 mm 0.00 in0.0 mm
07:40 PM 44.0°F6.7°C 21.8°F-5.7°C 41% 2.0 mph N3.2 kmh N 16.0 mph25.7 kmh 210.61 in7132.1 mb 0.00 in0.0 mm 0.00 in0.0 mm 0.00 in0.0 mm
07:45 PM 44.0°F6.7°C 21.8°F-5.7°C 41% 2.0 mph NW3.2 kmh NW 16.0 mph25.7 kmh 210.61 in7132.1 mb 0.00 in0.0 mm 0.00 in0.0 mm 0.00 in0.0 mm
07:50 PM 44.0°F6.7°C 21.8°F-5.7°C 41% 4.0 mph NW6.4 kmh NW 16.0 mph25.7 kmh 210.61 in7132.1 mb 0.00 in0.0 mm 0.00 in0.0 mm 0.00 in0.0 mm
07:55 PM 44.0°F6.7°C 22.4°F-5.3°C 42% 2.0 mph NW3.2 kmh NW 16.0 mph25.7 kmh 210.61 in7132.1 mb 0.00 in0.0 mm 0.00 in0.0 mm 0.00 in0.0 mm
08:00 PM 44.0°F6.7°C 22.4°F-5.3°C 42% 1.0 mph NW1.6 kmh NW 16.0 mph25.7 kmh 210.61 in7132.1 mb 0.00 in0.0 mm 0.00 in0.0 mm 0.00 in0.0 mm
08:05 PM 45.0°F7.2°C 23.3°F-4.8°C 42% 4.0 mph NW6.4 kmh NW 16.0 mph25.7 kmh 210.61 in7132.1 mb 0.00 in0.0 mm 0.00 in0.0 mm 0.00 in0.0 mm
08:10 PM 45.0°F7.2°C 23.3°F-4.8°C 42% 2.0 mph NW3.2 kmh NW 16.0 mph25.7 kmh 210.61 in7132.1 mb 0.00 in0.0 mm 0.00 in0.0 mm 0.00 in0.0 mm
08:15 PM 45.0°F7.2°C 23.3°F-4.8°C 42% 1.0 mph NW1.6 kmh NW 16.0 mph25.7 kmh 210.61 in7132.1 mb 0.00 in0.0 mm 0.00 in0.0 mm 0.00 in0.0 mm
08:20 PM 45.0°F7.2°C 23.3°F-4.8°C 42% Calm Calm 16.0 mph25.7 kmh 210.61 in7132.1 mb 0.00 in0.0 mm 0.00 in0.0 mm 0.00 in0.0 mm
08:25 PM 44.0°F6.7°C 21.8°F-5.7°C 41% Calm Calm 16.0 mph25.7 kmh 210.61 in7132.1 mb 0.00 in0.0 mm 0.00 in0.0 mm 0.00 in0.0 mm
08:30 PM 44.0°F6.7°C 21.8°F-5.7°C 41% 1.0 mph NW1.6 kmh NW 16.0 mph25.7 kmh 210.62 in7132.4 mb 0.00 in0.0 mm 0.00 in0.0 mm 0.00 in0.0 mm
08:35 PM 44.0°F6.7°C 21.8°F-5.7°C 41% 1.0 mph NW1.6 kmh NW 16.0 mph25.7 kmh 210.62 in7132.4 mb 0.00 in0.0 mm 0.00 in0.0 mm 0.00 in0.0 mm
08:40 PM 44.0°F6.7°C 21.8°F-5.7°C 41% 1.0 mph NW1.6 kmh NW 16.0 mph25.7 kmh 210.62 in7132.4 mb 0.00 in0.0 mm 0.00 in0.0 mm 0.00 in0.0 mm
08:45 PM 43.0°F6.1°C 20.9°F-6.2°C 41% Calm Calm 16.0 mph25.7 kmh 210.62 in7132.4 mb 0.00 in0.0 mm 0.00 in0.0 mm 0.00 in0.0 mm
08:50 PM 42.0°F5.6°C 20.0°F-6.7°C 41% Calm Calm 16.0 mph25.7 kmh 210.63 in7132.8 mb 0.00 in0.0 mm 0.00 in0.0 mm 0.00 in0.0 mm
08:55 PM 41.0°F5.0°C 19.1°F-7.2°C 41% Calm Calm 16.0 mph25.7 kmh 210.63 in7132.8 mb 0.00 in0.0 mm 0.00 in0.0 mm 0.00 in0.0 mm
09:00 PM 41.0°F5.0°C 19.1°F-7.2°C 41% Calm Calm 16.0 mph25.7 kmh 210.64 in7133.1 mb 0.00 in0.0 mm 0.00 in0.0 mm 0.00 in0.0 mm
09:05 PM 40.0°F4.4°C 18.2°F-7.7°C 41% Calm Calm 16.0 mph25.7 kmh 210.64 in7133.1 mb 0.00 in0.0 mm 0.00 in0.0 mm 0.00 in0.0 mm
09:10 PM 40.0°F4.4°C 18.2°F-7.7°C 41% Calm Calm 16.0 mph25.7 kmh 210.65 in7133.4 mb 0.00 in0.0 mm 0.00 in0.0 mm 0.00 in0.0 mm
09:15 PM 40.0°F4.4°C 18.2°F-7.7°C 41% Calm Calm 16.0 mph25.7 kmh 210.65 in7133.4 mb 0.00 in0.0 mm 0.00 in0.0 mm 0.00 in0.0 mm
09:20 PM 40.0°F4.4°C 18.2°F-7.7°C 41% Calm Calm 16.0 mph25.7 kmh 210.65 in7133.4 mb 0.00 in0.0 mm 0.00 in0.0 mm 0.00 in0.0 mm
09:25 PM 39.0°F3.9°C 17.3°F-8.2°C 41% Calm Calm 16.0 mph25.7 kmh 210.65 in7133.4 mb 0.00 in0.0 mm 0.00 in0.0 mm 0.00 in0.0 mm
09:30 PM 39.0°F3.9°C 17.3°F-8.2°C 41% Calm Calm 16.0 mph25.7 kmh 210.65 in7133.4 mb 0.00 in0.0 mm 0.00 in0.0 mm 0.00 in0.0 mm
09:35 PM 39.0°F3.9°C 17.3°F-8.2°C 41% 1.0 mph NE1.6 kmh NE 16.0 mph25.7 kmh 210.65 in7133.4 mb 0.00 in0.0 mm 0.00 in0.0 mm 0.00 in0.0 mm
09:40 PM 39.0°F3.9°C 17.3°F-8.2°C 41% 1.0 mph NE1.6 kmh NE 16.0 mph25.7 kmh 210.65 in7133.4 mb 0.00 in0.0 mm 0.00 in0.0 mm 0.00 in0.0 mm
09:50 PM 40.0°F4.4°C 18.2°F-7.7°C 41% 2.0 mph NE3.2 kmh NE 16.0 mph25.7 kmh 210.65 in7133.4 mb 0.00 in0.0 mm 0.00 in0.0 mm 0.00 in0.0 mm
09:55 PM 39.0°F3.9°C 17.3°F-8.2°C 41% Calm Calm 16.0 mph25.7 kmh 210.65 in7133.4 mb 0.00 in0.0 mm 0.00 in0.0 mm 0.00 in0.0 mm
10:00 PM 39.0°F3.9°C 17.3°F-8.2°C 41% 1.0 mph NE1.6 kmh NE 16.0 mph25.7 kmh 210.65 in7133.4 mb 0.00 in0.0 mm 0.00 in0.0 mm 0.00 in0.0 mm
10:05 PM 38.0°F3.3°C 16.4°F-8.7°C 41% Calm Calm 16.0 mph25.7 kmh 210.65 in7133.4 mb 0.00 in0.0 mm 0.00 in0.0 mm 0.00 in0.0 mm
10:10 PM 38.0°F3.3°C 16.4°F-8.7°C 41% Calm Calm 16.0 mph25.7 kmh 210.66 in7133.8 mb 0.00 in0.0 mm 0.00 in0.0 mm 0.00 in0.0 mm
10:15 PM 38.0°F3.3°C 16.4°F-8.7°C 41% Calm Calm 16.0 mph25.7 kmh 210.66 in7133.8 mb 0.00 in0.0 mm 0.00 in0.0 mm 0.00 in0.0 mm
10:20 PM 38.0°F3.3°C 16.4°F-8.7°C 41% Calm Calm 16.0 mph25.7 kmh 210.67 in7134.1 mb 0.00 in0.0 mm 0.00 in0.0 mm 0.00 in0.0 mm
10:25 PM 37.0°F2.8°C 15.5°F-9.2°C 41% Calm Calm 16.0 mph25.7 kmh 210.67 in7134.1 mb 0.00 in0.0 mm 0.00 in0.0 mm 0.00 in0.0 mm
10:30 PM 37.0°F2.8°C 15.5°F-9.2°C 41% Calm Calm 16.0 mph25.7 kmh 210.67 in7134.1 mb 0.00 in0.0 mm 0.00 in0.0 mm 0.00 in0.0 mm
10:35 PM 36.0°F2.2°C 14.6°F-9.7°C 41% Calm Calm 16.0 mph25.7 kmh 210.67 in7134.1 mb 0.00 in0.0 mm 0.00 in0.0 mm 0.00 in0.0 mm
10:40 PM 36.0°F2.2°C 14.6°F-9.7°C 41% Calm Calm 16.0 mph25.7 kmh 210.68 in7134.4 mb 0.00 in0.0 mm 0.00 in0.0 mm 0.00 in0.0 mm
10:45 PM 36.0°F2.2°C 14.6°F-9.7°C 41% Calm Calm 16.0 mph25.7 kmh 210.68 in7134.4 mb 0.00 in0.0 mm 0.00 in0.0 mm 0.00 in0.0 mm
10:50 PM 36.0°F2.2°C 14.6°F-9.7°C 41% Calm Calm 16.0 mph25.7 kmh 210.68 in7134.4 mb 0.00 in0.0 mm 0.00 in0.0 mm 0.00 in0.0 mm
10:55 PM 36.0°F2.2°C 14.6°F-9.7°C 41% Calm Calm 16.0 mph25.7 kmh 210.68 in7134.4 mb 0.00 in0.0 mm 0.00 in0.0 mm 0.00 in0.0 mm
11:00 PM 36.0°F2.2°C 14.6°F-9.7°C 41% Calm Calm 16.0 mph25.7 kmh 210.68 in7134.4 mb 0.00 in0.0 mm 0.00 in0.0 mm 0.00 in0.0 mm
11:05 PM 36.0°F2.2°C 14.6°F-9.7°C 41% Calm Calm 16.0 mph25.7 kmh 210.68 in7134.4 mb 0.00 in0.0 mm 0.00 in0.0 mm 0.00 in0.0 mm
11:10 PM 36.0°F2.2°C 14.6°F-9.7°C 41% Calm Calm 16.0 mph25.7 kmh 210.67 in7134.1 mb 0.00 in0.0 mm 0.00 in0.0 mm 0.00 in0.0 mm
11:15 PM 36.0°F2.2°C 14.6°F-9.7°C 41% Calm Calm 16.0 mph25.7 kmh 210.67 in7134.1 mb 0.00 in0.0 mm 0.00 in0.0 mm 0.00 in0.0 mm
11:20 PM 36.0°F2.2°C 14.6°F-9.7°C 41% Calm Calm 16.0 mph25.7 kmh 210.67 in7134.1 mb 0.00 in0.0 mm 0.00 in0.0 mm 0.00 in0.0 mm
11:25 PM 36.0°F2.2°C 14.6°F-9.7°C 41% Calm Calm 16.0 mph25.7 kmh 210.67 in7134.1 mb 0.00 in0.0 mm 0.00 in0.0 mm 0.00 in0.0 mm
11:30 PM 36.0°F2.2°C 14.6°F-9.7°C 41% Calm Calm 16.0 mph25.7 kmh 210.67 in7134.1 mb 0.00 in0.0 mm 0.00 in0.0 mm 0.00 in0.0 mm
11:35 PM 36.0°F2.2°C 14.6°F-9.7°C 41% Calm Calm 16.0 mph25.7 kmh 210.67 in7134.1 mb 0.00 in0.0 mm 0.00 in0.0 mm 0.00 in0.0 mm
11:40 PM 36.0°F2.2°C 14.6°F-9.7°C 41% Calm Calm 16.0 mph25.7 kmh 210.67 in7134.1 mb 0.00 in0.0 mm 0.00 in0.0 mm 0.00 in0.0 mm
11:45 PM 36.0°F2.2°C 14.6°F-9.7°C 41% Calm Calm 16.0 mph25.7 kmh 210.67 in7134.1 mb 0.00 in0.0 mm 0.00 in0.0 mm 0.00 in0.0 mm
11:50 PM 36.0°F2.2°C 14.6°F-9.7°C 41% Calm Calm 16.0 mph25.7 kmh 210.67 in7134.1 mb 0.00 in0.0 mm 0.00 in0.0 mm 0.00 in0.0 mm
11:55 PM 36.0°F2.2°C 14.6°F-9.7°C 41% Calm Calm 16.0 mph25.7 kmh 210.67 in7134.1 mb 0.00 in0.0 mm 0.00 in0.0 mm 0.00 in0.0 mm